Timeline UpdatesTrip UpdatesNews PostsPvt PostsTravel TipsAdmin PostsConv PostsFollowed PostsChat RequestsBlog PostsPNR Posts

Disclaimer
Search
 
 
Wed Apr 16, 2014 09:53:02 ISTHomeTrainsΣChainsAtlasPNRForumGalleryNewsFAQTripsMembersLoginFeedback
No Recent News for this Train
Other Trains in the News **new
Latest...
Will be diverted via Malkhedi-Agasod chord line avoiding Bina station from 25th march 2014
Thu Mar 27, 2014 (03:31PM)
⇐ Return Journey: Train# 18478

18477/Kalinga Utkal Express

Mar 27 (3:30PM)
Change Departure Station:
Change Arrival Station:
Post a Train Travel TipPost a Train Travel Tip **new
Post a Comment/Question/Picture/VideoPost a Comment/Question/Picture/Video
Pantry/Catering
✓ Pantry Car Avbl
✓ Catering Avbl
RSA - Rake Sharing
Rake/Coach Composition
Coach Composition:ENG-SLR-GS-GS-A1-B2-B1-S12-S11-S10-PC-S9-S8-S7-S6-S5-S4-S3-S2-S1-GS-SLR. By DJ 132 Entry# 701081
Loco
PURI-NZM WAP-7/TKD,NZM-HW WDM-2/3A LDH.
News    PNR    Forum    Time-Table    Availability    Fare Chart    Map    Arr/Dep History    Trips    Gallery    ΣChains    X/O    Timeline    
Travel Time: 10h 25m    16 halts    Distance: 578 km    Avg Speed: 55 km/hr
Type: Mail/Express
Zone: ECoR/East Coast
Departs @ 20:55 (Avg 8m late)
Platform# 5
SMTWTFS
Puri/PURI 
Arrives @ 07:20 +1 night (Avg 7m late)
Platform# ???
SMTWTFS
Chakradharpur/CKP 

16 halts. 95 intermediate Stations between Puri and Chakradharpur

Show ALL intermediate Stations  Show Old Time-Table

#CodeStation NameX/OArrivesAvgDepartsAvgHaltPFDay#KmSpeedElevZoneAddress
1PURI»Puri (5)»  -20:55+8510.04912mECoRPuri, Odisha
2SILSakhi Gopal (3)  21:15+1321:16+141m--116.44810mECoRPuri, Odisha
3KURKhurda Road Junction (7)X  21:50+1621:55+175m--143.94525mECoRKhordha, Odisha
4BBSBhubaneswar (4)  22:20+1822:25+185m4162.86740mECoRBhubaneshwar ph.no. 0674-2532233, Odisha
5CTCCuttack (5)  22:50+2922:55+295m1190.77728mECoRCuttack ph.no 0671-2610460, Odisha
6JJKRJajpur Keonjhar Road (4)  23:51+2023:52+211m--1162.74036mECoRJajpur, Odisha
7BHCBhadrak (4)X  00:58+501:00+62m--2206.48323mECoRBhadrak, Odisha
8SOROSoroX  01:21+1501:22+161m--2235.47214mSERSoro, Odisha
9BLSBalasore (4)X  01:50+1701:55+155m--2268.87019mSERBalasore, Odisha
10BTSBasta (3)X  02:19+1802:20+191m--2296.86916mSERBasta, Odisha
11JERJaleswar (4)X  02:37+1702:38+171m--2316.38313mSERJaleswar, Odisha
12HIJHijli (2)  03:25+1403:26+181m--2381.05048mSERdist - paschim medinipur, West Bengal
13CKUChakulia  04:47+704:48+101m--2448.880126mSERChakulia, Jharkhand
14GTSGhatsila (3)X  05:11+905:12+91m--2479.441103mSEREast Singhbhum, Jharkhand
15TATATatanagar Junction (5)  06:05+506:10+85m32515.560164mSER91-657-2423026, Jharkhand
16SINISini JunctionX  06:37+1206:38+131m--2542.557182mSERNational Highway 33, Jharkhand
17RKSNRajkharsawan Junction  06:54+1306:55+141m--2557.848189mSERWest Singhbhum district, Jharkhand
18CKP•Chakradharpur (3)•X  07:20+707:30+710m--2577.884235mSERChakradharpur (West Singhbhum), Jharkhand
19GOLGoilkera  07:54+1207:55+121m--2611.655333mSERGoilkera, Jharkhand
20MOUManoharpur  08:25+1308:26+141m--2639.164228mSERManoharpur, Jharkhand
21BZRBisra08:50+1608:51+171m--2664.8114224mSERSundargarh, Odisha
22BNDMBondamunda (3)  08:55+1708:56+161m--2672.321213mSERRourkela, Odisha
23ROURourkela Junction (5)X  09:15+1509:30+1515m12678.966198mSERRourkela, Odisha
24GPRaj Gangpur (3)  09:57+2009:58+211m12708.774237mSERRaj Ganpur, Odisha
25BMBBamra (3)  10:26+2010:27+201m--2743.335259mSERBamra PH : 06642-229268, Odisha
26JSGJharsuguda Junction (5)X  11:30+411:40+310m--2779.878236mSERJharsuguda, Odisha
27BRJNBrajrajnagarX  11:49+1011:50+111m--2791.559212mSECRBrajrajnagar, Odisha
28BPHBelpaharX  11:59+1112:00+131m--2800.485235mSECRBelpahar, Odisha
29RIGRaigarh (3)X  12:36+1512:41+155m22851.589220mSECRRaigarh, Chhattisgarh
30KHSKharsia  13:04+2613:05+271m--2885.471259mSECRNational Highway 200, Chhattisgarh
31SKTSakti (4)  13:18+2913:19+301m--2900.874237mSECRJanjgir-Champa, Chhattisgarh
32BUABaradwar  13:31+3213:32+331m--2915.755256mSECRJanjgir-Champa, Chhattisgarh
33CPHChampa Junction (3)  13:49+3513:54+345m22931.265264mSECRNational Highway 200 (07819-245767), Chhattisgarh
34NIANaila  14:04+3514:05+361m--2942.069273mSECRJanjgir, Chhattisgarh
35AKTAkaltara (4)X  14:18+3514:19+361m--2957.032284mSECRDist. Janjgir Champa, Chhattisgarh
36BSPBilaspur Junction (8)  15:10+1115:25+1815m22984.260271mSECRBilaspur, Chhattisgarh
37KGBKargi Road  15:57+2315:58+241m--21016.247327mSECRBilaspur, Chhattisgarh
38BIGBelgahna  16:18+2316:19+241m--21032.049327mSECRBilaspur, Chhattisgarh
39PNDPendra Road  17:25+2917:30+305m921085.861620mSECRBilaspur district, Chhattisgarh
40APRAnuppur Junction (3)X  18:20+3218:25+335m--21136.976487mSECRAnuppur, Madhya Pradesh
41AALAmlaiX  18:35+3618:36+371m--21149.652495mSECRAnuppur, Madhya Pradesh
42BUHBurharX  18:46+3618:47+371m--21158.331494mSECRBurhar, Madhya Pradesh
43SDLShahdolX  19:25+2219:30+225m--21177.864466mSECR, Madhya Pradesh
44BRSBirsinghpur  20:05+2620:06+271m--21215.248461mSECRPali, Madhya Pradesh
45NRZBNowrozabadX  20:15+2520:16+261m--21222.447458mSECRNational Highway 78, Madhya Pradesh
46UMRUmaria (3)  20:45+1820:50+185m221245.060469mSECRUmaria, Madhya Pradesh
47CHDChandia Road (1)X  21:09+1721:10+181m121264.023406mSECRNational Highway 78, Madhya Pradesh
48KMZKatni Murwara  22:55+323:10+915m--21303.870385mWCRMP 483504 ?, Madhya Pradesh
49DMODamoh (2)  00:43+800:45+92m--31413.078365mWCRDamoh, Madhya Pradesh
50PHAPatharia  01:05+1301:07+132m--31439.161382mWCRState Highway 14, Madhya Pradesh
51SGOSaugor (2)X  01:57+1502:00+163m--31490.155519mWCRMP 470001Madhya pradesh, Madhya Pradesh
52KYEKhurai (5)XO  02:58+903:00+112m--31542.916439mWCRKhurai, Madhya Pradesh
53MAKRMalkheri Junction (2)  04:05+204:07+32m--31560.161421mWCRGuna, Madhya Pradesh
54LARLalitpur (3)X  05:09+1105:10+151m331623.2114373mNCRLalitpur, Uttar Pradesh
55TBTTalbahat (4)  05:31+1905:33+232m--31663.271314mNCRKhaniyadhana Station Rd, Madhya Pradesh
56BABBabina (3)X  05:54+2605:55+291m131688.138285mNCRBabina, Uttar Pradesh
57JHSJhansi Junction (7)  06:35+2506:43+318m431713.665259mNCRJhansi, Uttar Pradesh
58DAADatia (2)  07:06+3307:07+391m--31738.683264mNCRDatia, Madhya Pradesh
59DBADabra (3)X  07:29+4207:30+491m131769.039204mNCRDabra(District-Gwalior), Madhya Pradesh
60GWLGwalior Junction (4)X  08:35+3408:40+355m231811.383214mNCRGwalior, Madhya Pradesh
61MRAMorena (3)  09:08+4109:09+421m231849.867176mNCRMorena, Madhya Pradesh
62DHODholpur Junction (3)X  09:33+4109:34+421m131876.744177mNCRDholpur, Rajasthan
63AGCAgra Cantt. (6)X  10:45+3110:53+328m331929.324174mNCRAgra, Uttar Pradesh
64RKMRaja Ki Mandi (4)  11:03+3311:04+341m131933.369170mNCRAgra, Uttar Pradesh
65MTJMathura Junction (10)X  11:47+3911:52+405m231983.069179mNCRMathura, Uttar Pradesh
66FDBFaridabad (4)X  13:30+3313:31+341m232096.137206mNRFaridabad, Haryana
67NZMDelhi Hazrat Nizamuddin (7)XO14:05+3914:35+3830m132116.939209mNRNizamuddin East/Sarai KaleKhan Bus Terminal, Delhi NCT
68GZBGhaziabad Junction (6)  15:11+4715:13+472m132140.367217mNRGhaziabad, Uttar Pradesh
69MTCMeerut City Junction (6)  15:55+5716:00+565m132187.664229mNRMeerut, Uttar Pradesh
70MOZMuzaffarnagar (3)  16:52+5916:53+1:021m132243.218247mNRMuzaffarNagar, Uttar Pradesh
71DBDDeoband (2)X  18:11+2318:12+241m132267.234258mNRSaharanpur, Uttar Pradesh
72TPZTapri Junction (2)  19:01+1419:02+141m232294.955274mNRTapri -Saharanpur, Uttar Pradesh
73RKRoorkee (3)X  19:37+2219:38+241m332326.952264mNRRoorkee - 247667, Uttarakhand
74HWHaridwar Junction (9)  20:30+19-232371.6-294mNRHaridwar, Uttarakhand
Scroll to Top
Scroll to Bottom